createdAt,value
2018-09-10T17:52:54.424Z,16.10
2018-09-10T17:54:57.779Z,8.90
2018-09-10T17:55:57.815Z,10.90
2018-09-10T17:56:57.829Z,9.70
2018-09-10T17:57:58.054Z,8.80
2018-09-10T17:58:57.861Z,12.80
2018-09-10T17:59:57.878Z,10.50
2018-09-10T18:00:57.907Z,9.40
2018-09-10T18:01:57.912Z,7.40
2018-09-10T18:02:57.938Z,9.20
2018-09-10T18:03:58.200Z,8.50
2018-09-10T18:04:57.979Z,8.90
2018-09-10T18:05:58.013Z,9.00
2018-09-10T18:06:58.021Z,7.60
2018-09-10T18:07:58.033Z,8.50
2018-09-10T18:08:58.054Z,14.40
2018-09-10T18:09:58.063Z,12.40
2018-09-10T18:10:58.209Z,13.40
2018-09-10T18:11:58.103Z,10.10
2018-09-10T18:12:58.124Z,12.20
2018-09-10T18:13:58.287Z,13.60
2018-09-10T18:14:58.165Z,18.50
2018-09-10T18:15:58.181Z,9.20
2018-09-10T18:16:58.201Z,7.40
2018-09-10T18:17:58.204Z,13.20
2018-09-10T18:18:58.234Z,11.80
2018-09-10T18:19:58.354Z,10.40
2018-09-10T18:20:58.268Z,7.90
2018-09-10T18:21:58.292Z,8.50
2018-09-10T18:22:58.299Z,10.30
2018-09-10T18:23:58.328Z,8.20
2018-09-10T18:24:58.472Z,11.10
2018-09-10T18:25:58.351Z,24.30
2018-09-10T18:26:58.374Z,11.80
2018-09-10T18:27:58.403Z,8.60
2018-09-10T18:28:58.407Z,9.70
2018-09-10T18:29:58.419Z,9.80
2018-09-10T18:30:58.454Z,11.20
2018-09-10T18:31:58.476Z,10.90
2018-09-10T18:32:58.495Z,11.10
2018-09-10T18:33:58.497Z,12.30
2018-09-10T18:34:58.616Z,11.20
2018-09-10T18:35:58.630Z,10.00
2018-09-10T18:36:58.550Z,10.70
2018-09-10T18:37:58.567Z,11.10
2018-09-10T18:38:58.599Z,11.10
2018-09-10T18:39:58.721Z,10.50
2018-09-10T18:40:58.633Z,23.60
2018-09-10T18:41:58.654Z,14.60
2018-09-10T18:42:58.659Z,14.40
2018-09-10T18:43:58.677Z,8.10
2018-09-10T18:44:58.965Z,11.30
2018-09-10T18:45:58.725Z,12.60
2018-09-10T18:46:58.741Z,16.40
2018-09-10T18:47:58.761Z,17.00
2018-09-10T18:48:58.827Z,18.50
2018-09-10T18:49:58.932Z,16.30
2018-09-10T18:50:58.799Z,10.00
2018-09-10T18:51:58.832Z,13.50
2018-09-10T18:52:58.847Z,13.80
2018-09-10T18:53:58.869Z,11.70
2018-09-10T18:54:58.965Z,12.10
2018-09-10T18:55:58.897Z,20.20
2018-09-10T18:56:58.915Z,15.10
2018-09-10T18:57:58.933Z,13.70
2018-09-10T18:58:58.951Z,14.90
2018-09-10T18:59:59.108Z,14.30
2018-09-10T19:00:59.085Z,14.50
2018-09-10T19:01:58.987Z,15.00
2018-09-10T19:02:59.025Z,13.10
2018-09-10T19:03:59.041Z,14.90
2018-09-10T19:04:59.195Z,14.50
2018-09-10T19:05:59.063Z,15.10
2018-09-10T19:06:59.087Z,14.90
2018-09-10T19:07:59.108Z,15.20
2018-09-10T19:08:59.106Z,14.20
2018-09-10T19:09:59.136Z,14.90
2018-09-10T19:10:59.146Z,16.10
2018-09-10T19:11:59.162Z,16.80
2018-09-10T19:12:59.175Z,18.00
2018-09-10T19:13:59.251Z,18.30
2018-09-10T19:14:59.220Z,18.40
2018-09-10T19:15:59.239Z,17.80
2018-09-10T19:16:59.254Z,17.90
2018-09-10T19:17:59.292Z,16.50
2018-09-10T19:18:59.287Z,17.10
2018-09-10T19:19:59.402Z,16.10
2018-09-10T19:20:59.321Z,19.60
2018-09-10T19:21:59.337Z,17.50
2018-09-10T19:22:59.354Z,17.80
2018-09-10T19:23:59.468Z,17.20
2018-09-10T19:24:59.472Z,17.70
2018-09-10T19:25:59.393Z,16.30
2018-09-10T19:26:59.415Z,17.00
2018-09-10T19:27:59.431Z,16.20
2018-09-10T19:28:59.450Z,15.90
2018-09-10T19:29:59.603Z,15.70
2018-09-10T19:30:59.465Z,15.30
2018-09-10T19:31:59.483Z,14.40
2018-09-10T19:32:59.497Z,15.10
2018-09-10T19:33:59.531Z,14.10
2018-09-10T19:34:59.644Z,14.10
2018-09-10T19:35:59.551Z,13.10
2018-09-10T19:36:59.563Z,12.90
2018-09-10T19:37:59.596Z,12.30
2018-09-10T19:38:59.598Z,13.30
2018-09-10T19:39:59.721Z,12.50
2018-09-10T19:40:59.640Z,12.80
2018-09-10T19:41:59.653Z,13.40
2018-09-10T19:42:59.658Z,15.00
2018-09-10T19:43:59.698Z,15.30
2018-09-10T19:44:59.859Z,14.90
2018-09-10T19:45:59.717Z,15.40
2018-09-10T19:46:59.736Z,15.50
2018-09-10T19:47:59.751Z,17.00
2018-09-10T19:48:59.754Z,18.00
2018-09-10T19:49:59.879Z,19.20
2018-09-10T19:50:59.827Z,20.60
2018-09-10T19:51:59.817Z,20.70
2018-09-10T19:52:59.832Z,20.80
2018-09-10T19:53:59.839Z,21.40
2018-09-10T19:54:59.997Z,22.20
2018-09-10T19:55:59.885Z,20.60
2018-09-10T19:56:59.885Z,21.30
2018-09-10T19:57:59.887Z,21.30
2018-09-10T19:58:59.920Z,22.40
2018-09-10T20:00:00.036Z,21.90
2018-09-10T20:00:59.934Z,22.10
2018-09-10T20:01:59.965Z,24.40
2018-09-10T20:02:59.967Z,22.00
2018-09-10T20:04:00.000Z,21.80
2018-09-10T20:05:00.102Z,21.80
2018-09-10T20:06:00.007Z,22.50
2018-09-10T20:07:00.042Z,22.50
2018-09-10T20:08:00.039Z,22.20
2018-09-10T20:09:00.062Z,23.20
2018-09-10T20:10:00.235Z,23.80
2018-09-10T20:11:00.087Z,22.70
2018-09-10T20:12:00.113Z,24.40
2018-09-10T20:13:00.138Z,24.70
2018-09-10T20:14:00.148Z,23.00
2018-09-10T20:15:00.300Z,20.90
2018-09-10T20:16:00.163Z,22.90
2018-09-10T20:17:00.191Z,16.80
2018-09-10T20:18:00.189Z,14.20
2018-09-10T20:19:00.225Z,18.80
2018-09-10T20:20:00.242Z,15.60
2018-09-10T20:21:00.247Z,16.10
2018-09-10T20:22:00.323Z,15.40
2018-09-10T20:23:00.284Z,11.60
2018-09-10T20:24:00.295Z,13.40
2018-09-10T20:25:00.310Z,13.40
2018-09-10T20:26:00.312Z,14.10
2018-09-10T20:27:00.322Z,14.20
2018-09-10T20:28:00.356Z,12.60
2018-09-10T20:29:00.369Z,10.90
2018-09-10T20:30:00.375Z,14.00
2018-09-10T20:31:00.385Z,14.40
2018-09-10T20:32:00.399Z,14.00
2018-09-10T20:33:00.419Z,13.00
2018-09-10T20:34:00.429Z,14.50
2018-09-10T20:35:00.458Z,13.40
2018-09-10T20:36:00.471Z,15.90
2018-09-10T20:37:00.472Z,14.80
2018-09-10T20:38:00.498Z,13.20
2018-09-10T20:39:00.519Z,14.70
2018-09-10T20:40:00.516Z,16.70
2018-09-10T20:41:00.543Z,15.40
2018-09-10T20:42:00.541Z,15.30
2018-09-10T20:43:00.628Z,13.20
2018-09-10T20:44:00.588Z,14.10
2018-09-10T20:45:00.603Z,15.30
2018-09-10T20:46:00.718Z,13.30
2018-09-10T20:47:00.631Z,11.80
2018-09-10T20:48:00.646Z,13.00
2018-09-10T20:49:00.645Z,13.90
2018-09-10T20:50:00.674Z,16.00
2018-09-10T20:51:00.826Z,13.70
2018-09-10T20:52:00.710Z,11.10
2018-09-10T20:53:00.716Z,14.20
2018-09-10T20:54:00.712Z,13.90
2018-09-10T20:55:00.728Z,13.30
2018-09-10T20:56:01.003Z,14.50
2018-09-10T20:57:00.776Z,13.30
2018-09-10T20:58:00.789Z,12.80
2018-09-10T20:59:00.794Z,12.70
2018-09-10T21:00:00.814Z,13.00
2018-09-10T21:01:00.925Z,12.80
2018-09-10T21:02:00.822Z,11.50
2018-09-10T21:03:00.854Z,12.40
2018-09-10T21:04:00.907Z,12.30
2018-09-10T21:05:01.087Z,12.00
2018-09-10T21:06:00.986Z,13.90
2018-09-10T21:07:00.917Z,13.60
2018-09-10T21:08:00.911Z,11.20
2018-09-10T21:09:00.938Z,10.40
2018-09-10T21:10:00.941Z,9.10
2018-09-10T21:11:01.105Z,10.00
2018-09-10T21:12:00.968Z,10.20
2018-09-10T21:13:00.979Z,10.50
2018-09-10T21:14:01.008Z,10.10
2018-09-10T21:15:01.023Z,11.60
2018-09-10T21:16:01.185Z,10.90
2018-09-10T21:17:01.032Z,11.00
2018-09-10T21:18:01.047Z,12.10
2018-09-10T21:19:01.077Z,11.90
2018-09-10T21:20:01.089Z,10.40
2018-09-10T21:21:01.239Z,15.70
2018-09-10T21:22:01.113Z,10.40
2018-09-10T21:23:01.126Z,11.70
2018-09-10T21:24:01.127Z,10.90
2018-09-10T21:25:01.158Z,11.40
2018-09-10T21:26:01.318Z,11.70
2018-09-10T21:27:01.179Z,14.10
2018-09-10T21:28:01.197Z,16.10
2018-09-10T21:29:01.219Z,11.70
2018-09-10T21:30:01.208Z,13.50
2018-09-10T21:31:01.239Z,12.60
2018-09-10T21:32:01.401Z,13.10
2018-09-10T21:33:01.280Z,10.50
2018-09-10T21:34:01.276Z,13.80
2018-09-10T21:35:01.281Z,12.50
2018-09-10T21:36:01.302Z,11.90
2018-09-10T21:37:01.318Z,13.90
2018-09-10T21:38:01.330Z,13.20
2018-09-10T21:39:01.327Z,10.10
2018-09-10T21:40:01.360Z,12.00
2018-09-10T21:41:01.352Z,9.60
2018-09-10T21:42:01.534Z,10.40
2018-09-10T21:43:01.383Z,9.90
2018-09-10T21:44:01.412Z,10.80
2018-09-10T21:45:01.411Z,11.30
2018-09-10T21:46:01.420Z,12.00
2018-09-10T21:47:01.666Z,9.40
2018-09-10T21:48:01.465Z,12.20
2018-09-10T21:49:01.467Z,11.00
2018-09-10T21:50:01.484Z,10.80
2018-09-10T21:51:01.505Z,9.70
2018-09-10T21:52:01.652Z,10.60
2018-09-10T21:53:01.529Z,12.00
2018-09-10T21:54:01.543Z,12.80
2018-09-10T21:55:01.548Z,11.80
2018-09-10T21:56:01.576Z,9.80
2018-09-10T21:57:01.566Z,10.40
2018-09-10T21:58:01.592Z,11.00
2018-09-10T21:59:01.600Z,8.90
2018-09-10T22:00:01.608Z,10.10
2018-09-10T22:01:01.624Z,10.80
2018-09-10T22:02:01.789Z,10.50
2018-09-10T22:03:01.667Z,11.10
2018-09-10T22:04:01.666Z,8.10
2018-09-10T22:05:01.681Z,10.30
2018-09-10T22:06:01.702Z,10.90
2018-09-10T22:07:01.808Z,10.30
2018-09-10T22:08:01.732Z,9.90
2018-09-10T22:09:01.730Z,10.30
2018-09-10T22:10:01.765Z,13.40
2018-09-10T22:11:01.762Z,11.60
2018-09-10T22:12:01.777Z,10.80
2018-09-10T22:13:01.789Z,9.20
2018-09-10T22:14:01.799Z,8.50
2018-09-10T22:15:01.822Z,10.00
2018-09-10T22:16:01.857Z,10.00
2018-09-10T22:17:01.949Z,10.10
2018-09-10T22:18:01.859Z,11.40
2018-09-10T22:19:01.877Z,8.80
2018-09-10T22:20:01.880Z,9.80
2018-09-10T22:21:01.905Z,12.90
2018-09-10T22:22:02.001Z,15.60
2018-09-10T22:23:01.933Z,14.80
2018-09-10T22:24:01.938Z,11.50
2018-09-10T22:25:01.941Z,10.60
2018-09-10T22:26:01.968Z,10.20
2018-09-10T22:27:02.131Z,11.30
2018-09-10T22:28:01.996Z,11.00
2018-09-10T22:29:02.012Z,10.70
2018-09-10T22:30:02.008Z,13.60
2018-09-10T22:31:02.022Z,12.60
2018-09-10T22:32:02.232Z,11.10
2018-09-10T22:33:02.050Z,11.50
2018-09-10T22:34:02.060Z,11.60
2018-09-10T22:35:02.086Z,11.10
2018-09-10T22:36:02.100Z,10.90
2018-09-10T22:37:02.115Z,9.40
2018-09-10T22:38:02.128Z,12.50
2018-09-10T22:39:02.124Z,13.10
2018-09-10T22:40:02.150Z,15.90
2018-09-10T22:41:02.148Z,11.80
2018-09-10T22:42:02.178Z,9.20
2018-09-10T22:43:02.328Z,9.60
2018-09-10T22:44:02.191Z,8.60
2018-09-10T22:45:02.667Z,8.80
2018-09-10T22:46:02.231Z,9.10
2018-09-10T22:47:02.233Z,10.80
2018-09-10T22:48:02.359Z,9.30
2018-09-10T22:49:02.273Z,10.50
2018-09-10T22:50:02.281Z,12.90
2018-09-10T22:51:02.299Z,13.00
2018-09-10T22:52:02.297Z,15.50
2018-09-10T22:53:02.474Z,16.40
2018-09-10T22:54:02.333Z,15.00
2018-09-10T22:55:02.352Z,10.60
2018-09-10T22:56:02.363Z,10.90
2018-09-10T22:57:02.375Z,11.40
2018-09-10T22:58:02.523Z,12.00
2018-09-10T22:59:02.391Z,8.70
2018-09-10T23:00:02.401Z,8.90
2018-09-10T23:01:02.415Z,9.00
2018-09-10T23:02:02.438Z,10.10
2018-09-10T23:03:02.590Z,10.90
2018-09-10T23:04:02.460Z,9.70
2018-09-10T23:05:02.472Z,8.80
2018-09-10T23:06:02.479Z,8.10
2018-09-10T23:07:02.503Z,8.30
2018-09-10T23:08:02.666Z,7.90
2018-09-10T23:09:02.519Z,15.60
2018-09-10T23:10:02.530Z,15.30
2018-09-10T23:11:02.556Z,17.20
2018-09-10T23:12:02.563Z,13.10
2018-09-10T23:13:02.673Z,9.60
2018-09-10T23:14:02.609Z,10.80
2018-09-10T23:15:02.600Z,8.70
2018-09-10T23:16:02.613Z,9.00
2018-09-10T23:17:02.641Z,9.30
2018-09-10T23:18:02.790Z,8.10
2018-09-10T23:19:02.665Z,6.70
2018-09-10T23:20:02.678Z,8.00
2018-09-10T23:21:02.684Z,10.40
2018-09-10T23:22:02.704Z,7.80
2018-09-10T23:23:02.809Z,8.60
2018-09-10T23:24:02.731Z,9.30
2018-09-10T23:25:02.807Z,9.00
2018-09-10T23:26:02.759Z,11.20
2018-09-10T23:27:02.805Z,8.60
2018-09-10T23:28:02.868Z,8.00
2018-09-10T23:29:02.797Z,6.90
2018-09-10T23:30:02.794Z,6.70
2018-09-10T23:31:02.819Z,8.20
2018-09-10T23:32:02.832Z,8.30
2018-09-10T23:33:02.942Z,6.60
2018-09-10T23:34:02.847Z,7.90
2018-09-10T23:35:02.862Z,7.20
2018-09-10T23:36:02.880Z,7.60
2018-09-10T23:37:02.906Z,7.50
2018-09-10T23:38:03.070Z,7.40
2018-09-10T23:39:02.927Z,8.70
2018-09-10T23:40:02.929Z,7.70
2018-09-10T23:41:02.961Z,6.20
2018-09-10T23:42:02.966Z,7.70
2018-09-10T23:43:02.980Z,9.50
2018-09-10T23:44:02.992Z,7.80
2018-09-10T23:45:03.008Z,9.00
2018-09-10T23:46:03.002Z,8.00
2018-09-10T23:47:03.426Z,7.00
2018-09-10T23:48:03.143Z,7.30
2018-09-10T23:49:03.056Z,8.60
2018-09-10T23:50:03.057Z,7.00
2018-09-10T23:51:03.076Z,7.00
2018-09-10T23:52:03.083Z,8.10
2018-09-10T23:53:03.259Z,8.00
2018-09-10T23:54:03.107Z,6.90
2018-09-10T23:55:03.139Z,9.70
2018-09-10T23:56:03.135Z,9.00
2018-09-10T23:57:03.149Z,9.00
2018-09-10T23:58:03.162Z,10.10
2018-09-10T23:59:03.177Z,10.40
